createdAt,value
2019-05-06T00:00:17.933Z,95467.9
2019-05-06T00:01:20.629Z,95467.6
2019-05-06T00:02:24.366Z,95468.7
2019-05-06T00:03:28.370Z,95462
2019-05-06T00:04:30.522Z,95460.4
2019-05-06T00:05:35.005Z,95464.8
2019-05-06T00:06:38.437Z,95460.9
2019-05-06T00:07:41.433Z,95462.2
2019-05-06T00:08:45.199Z,95462.9
2019-05-06T00:09:47.550Z,95461.2
2019-05-06T00:10:50.147Z,95458.3
2019-05-06T00:11:54.973Z,95461.3
2019-05-06T00:12:57.133Z,95458.5
2019-05-06T00:13:59.550Z,95462.9
2019-05-06T00:15:03.403Z,95460.3
2019-05-06T00:16:06.353Z,95458.2
2019-05-06T00:17:08.501Z,95456.8
2019-05-06T00:18:10.680Z,95458.8
2019-05-06T00:19:15.345Z,95456.1
2019-05-06T00:20:17.764Z,95457.4
2019-05-06T00:21:19.921Z,95453.5
2019-05-06T00:23:27.261Z,95459.8
2019-05-06T00:24:29.409Z,95459.4
2019-05-06T00:25:31.582Z,95460.9
2019-05-06T00:26:36.153Z,95460.1
2019-05-06T00:27:38.303Z,95463.6
2019-05-06T00:28:40.433Z,95462.8
2019-05-06T00:30:49.238Z,95461.7
2019-05-06T00:31:53.825Z,95466.9
2019-05-06T00:32:56.577Z,95457.2
2019-05-06T00:33:58.997Z,95465.3
2019-05-06T00:35:01.326Z,95465.9
2019-05-06T00:37:09.420Z,95465
2019-05-06T00:38:13.842Z,95469
2019-05-06T00:39:16.146Z,95466.2
2019-05-06T00:40:17.999Z,95466.6
2019-05-06T00:41:20.353Z,95464.9
2019-05-06T00:42:25.025Z,95465.5
2019-05-06T00:43:27.784Z,95464.6
2019-05-06T00:44:30.115Z,95467.7
2019-05-06T00:46:38.401Z,95467.3
2019-05-06T00:47:40.554Z,95464.4
2019-05-06T00:49:49.828Z,95464.4
2019-05-06T00:50:54.043Z,95467.2
2019-05-06T00:51:56.305Z,95468.7
2019-05-06T00:52:59.065Z,95469.4
2019-05-06T00:54:00.907Z,95467
2019-05-06T00:55:05.133Z,95467.6
2019-05-06T00:56:07.286Z,95465.1
2019-05-06T00:57:09.714Z,95466.3
2019-05-06T00:58:14.104Z,95460
2019-05-06T00:59:18.481Z,95466.2
2019-05-06T01:00:21.504Z,95461.5
2019-05-06T01:02:29.363Z,95464.2
2019-05-06T01:03:34.488Z,95463.4
2019-05-06T01:04:38.133Z,95468.3
2019-05-06T01:05:40.488Z,95466.1
2019-05-06T01:07:48.071Z,95463.1
2019-05-06T01:08:50.598Z,95466.5
2019-05-06T01:09:56.052Z,95468.7
2019-05-06T01:10:58.213Z,95469.8
2019-05-06T01:12:00.360Z,95470.5
2019-05-06T01:13:05.149Z,95472.4
2019-05-06T01:14:07.326Z,95472.9
2019-05-06T01:15:09.753Z,95469.2
2019-05-06T01:16:12.183Z,95477.8
2019-05-06T01:17:14.938Z,95474.2
2019-05-06T01:18:18.138Z,95486.5
2019-05-06T01:19:20.764Z,95478.6
2019-05-06T01:20:25.195Z,95476.8
2019-05-06T01:21:27.339Z,95476.3
2019-05-06T01:22:29.763Z,95479.8
2019-05-06T01:23:34.024Z,95486
2019-05-06T01:24:36.569Z,95484.3
2019-05-06T01:25:38.714Z,95482.3
2019-05-06T01:26:41.130Z,95481.2
2019-05-06T01:27:45.818Z,95482
2019-05-06T01:28:48.844Z,95485.5
2019-05-06T01:29:51.188Z,95488.8
2019-05-06T01:30:55.633Z,95484.8
2019-05-06T01:31:59.306Z,95488.2
2019-05-06T01:34:07.331Z,95484
2019-05-06T01:35:09.923Z,95489.4
2019-05-06T01:37:18.024Z,95484.1
2019-05-06T01:38:20.173Z,95487.6
2019-05-06T01:39:24.416Z,95488.2
2019-05-06T01:40:26.643Z,95487.2
2019-05-06T01:41:28.802Z,95488.3
2019-05-06T01:42:31.432Z,95491.5
2019-05-06T01:43:38.666Z,95491.6
2019-05-06T01:44:40.811Z,95490.7
2019-05-06T01:45:44.593Z,95489.7
2019-05-06T01:46:46.799Z,95487.3
2019-05-06T01:47:49.387Z,95493.7
2019-05-06T01:48:53.450Z,95490.8
2019-05-06T01:49:55.989Z,95493.5
2019-05-06T01:50:58.410Z,95488.6
2019-05-06T01:52:00.820Z,95489.5
2019-05-06T01:53:05.476Z,95488.9
2019-05-06T01:54:07.625Z,95488.5
2019-05-06T01:55:10.064Z,95489.8
2019-05-06T01:56:14.340Z,95489.6
2019-05-06T01:57:16.973Z,95489.8
2019-05-06T01:58:19.737Z,95491
2019-05-06T01:59:21.893Z,95493.8
2019-05-06T02:00:26.551Z,95491.3
2019-05-06T02:01:28.952Z,95491.5
2019-05-06T02:02:34.188Z,95486.7
2019-05-06T02:03:36.472Z,95490.3
2019-05-06T02:04:38.625Z,95491.9
2019-05-06T02:05:41.049Z,95490.7
2019-05-06T02:06:45.306Z,95489.2
2019-05-06T02:07:47.732Z,95488
2019-05-06T02:08:49.893Z,95494.1
2019-05-06T02:09:54.031Z,95491.1
2019-05-06T02:10:56.173Z,95491
2019-05-06T02:11:59.313Z,95495.1
2019-05-06T02:14:07.845Z,95499.1
2019-05-06T02:15:10.278Z,95500.6
2019-05-06T02:16:14.304Z,95501.3
2019-05-06T02:17:16.916Z,95497.5
2019-05-06T02:18:19.075Z,95501.9
2019-05-06T02:19:21.675Z,95499.7
2019-05-06T02:20:26.165Z,95506.6
2019-05-06T02:21:29.188Z,95509.3
2019-05-06T02:22:31.933Z,95505.7
2019-05-06T02:23:36.247Z,95510
2019-05-06T02:24:39.270Z,95507.8
2019-05-06T02:25:41.449Z,95508.8
2019-05-06T02:26:45.176Z,95507.8
2019-05-06T02:27:47.768Z,95510.7
2019-05-06T02:28:50.188Z,95511
2019-05-06T02:29:54.782Z,95511.4
2019-05-06T02:30:57.218Z,95513.1
2019-05-06T02:33:05.348Z,95510.7
2019-05-06T02:34:07.798Z,95515.6
2019-05-06T02:35:11.133Z,95514
2019-05-06T02:36:18.018Z,95515.4
2019-05-06T02:37:20.549Z,95516.3
2019-05-06T02:39:28.273Z,95514.7
2019-05-06T02:41:36.353Z,95518.6
2019-05-06T02:42:38.812Z,95517.3
2019-05-06T02:44:46.711Z,95517.9
2019-05-06T02:45:48.863Z,95521.7
2019-05-06T02:47:56.269Z,95519.6
2019-05-06T02:48:58.427Z,95522
2019-05-06T02:51:06.513Z,95519.7
2019-05-06T02:52:09.699Z,95524.8
2019-05-06T02:54:16.574Z,95527
2019-05-06T02:55:18.441Z,95523.5
2019-05-06T02:57:27.438Z,95527
2019-05-06T02:58:32.825Z,95524.1
2019-05-06T02:59:36.284Z,95523.1
2019-05-06T03:00:38.704Z,95526.3
2019-05-06T03:04:57.024Z,95527.1
2019-05-06T03:05:59.430Z,95528
2019-05-06T03:08:06.538Z,95527.2
2019-05-06T03:09:08.435Z,95522.9
2019-05-06T03:10:15.046Z,95527.7
2019-05-06T03:11:17.612Z,95523.6
2019-05-06T03:12:22.501Z,95527
2019-05-06T03:13:25.911Z,95532.4
2019-05-06T03:14:28.070Z,95532.7
2019-05-06T03:16:36.402Z,95537.1
2019-05-06T03:17:38.570Z,95538.1
2019-05-06T03:19:47.048Z,95538.6
2019-05-06T03:20:49.184Z,95544.3
2019-05-06T03:22:23.952Z,95543.7
2019-05-06T03:23:27.032Z,95542.5
2019-05-06T03:24:29.326Z,95545.6
2019-05-06T03:25:35.668Z,95550.1
2019-05-06T03:26:38.692Z,95548.9
2019-05-06T03:28:47.799Z,95550.4
2019-05-06T03:30:58.421Z,95551.5
2019-05-06T03:32:06.038Z,95547.5
2019-05-06T03:37:27.362Z,95547.6
2019-05-06T03:38:29.824Z,95547
2019-05-06T03:39:36.825Z,95552.2
2019-05-06T03:41:45.066Z,95554.8
2019-05-06T03:42:47.484Z,95553.3
2019-05-06T03:43:49.900Z,95556.6
2019-05-06T03:45:57.302Z,95552.5
2019-05-06T03:47:04.999Z,95558.9
2019-05-06T03:48:07.267Z,95559
2019-05-06T03:49:09.685Z,95556.7
2019-05-06T03:50:16.315Z,95560.8
2019-05-06T03:51:18.740Z,95560.4
2019-05-06T03:53:26.626Z,95560.7
2019-05-06T03:54:29.373Z,95557.3
2019-05-06T03:56:37.262Z,95567.6
2019-05-06T03:57:42.477Z,95562.8
2019-05-06T03:58:46.819Z,95562.7
2019-05-06T03:59:49.458Z,95562.8
2019-05-06T04:00:56.547Z,95568.7
2019-05-06T04:01:58.978Z,95562.4
2019-05-06T04:04:07.010Z,95563.9
2019-05-06T04:05:09.434Z,95569.5
2019-05-06T04:06:16.442Z,95566.8
2019-05-06T04:07:18.610Z,95568.1
2019-05-06T04:09:28.232Z,95575.3
2019-05-06T04:10:33.641Z,95575
2019-05-06T04:11:37.937Z,95577.7
2019-05-06T04:12:43.318Z,95579
2019-05-06T04:13:47.403Z,95581.5
2019-05-06T04:14:50.168Z,95579.8
2019-05-06T04:15:57.061Z,95581.1
2019-05-06T04:16:59.500Z,95577.6
2019-05-06T04:19:07.885Z,95582.1
2019-05-06T04:21:17.995Z,95582.8
2019-05-06T04:22:20.141Z,95587.3
2019-05-06T04:23:27.575Z,95586.9
2019-05-06T04:24:29.433Z,95586.3
2019-05-06T04:26:37.492Z,95588.1
2019-05-06T04:27:42.746Z,95592.2
2019-05-06T04:28:46.495Z,95588.8
2019-05-06T04:29:49.116Z,95593.2
2019-05-06T04:30:54.471Z,95591.6
2019-05-06T04:31:58.590Z,95591.7
2019-05-06T04:36:16.643Z,95597.8
2019-05-06T04:37:19.065Z,95594
2019-05-06T04:39:26.286Z,95598.1
2019-05-06T04:40:29.304Z,95597.9
2019-05-06T04:42:37.311Z,95598.4
2019-05-06T04:43:39.445Z,95597.4
2019-05-06T04:45:46.855Z,95601.5
2019-05-06T04:46:49.872Z,95600.7
2019-05-06T04:48:58.008Z,95605.2
2019-05-06T04:50:04.364Z,95604.4
2019-05-06T04:51:06.519Z,95610.4
2019-05-06T04:52:09.494Z,95606.4
2019-05-06T04:54:17.589Z,95605.4
2019-05-06T04:55:22.512Z,95605.8
2019-05-06T04:56:26.641Z,95603.4
2019-05-06T04:57:28.772Z,95607
2019-05-06T04:59:36.658Z,95605.7
2019-05-06T05:00:39.082Z,95605.9
2019-05-06T05:01:41.501Z,95609.1
2019-05-06T05:02:48.395Z,95610.4
2019-05-06T05:03:53.523Z,95611.9
2019-05-06T05:04:57.239Z,95609.1
2019-05-06T05:07:04.935Z,95608.6
2019-05-06T05:08:07.352Z,95607.1
2019-05-06T05:09:11.764Z,95610.1
2019-05-06T05:10:16.815Z,95608.9
2019-05-06T05:11:18.974Z,95613.3
2019-05-06T05:12:26.655Z,95609.1
2019-05-06T05:13:29.071Z,95611.8
2019-05-06T05:14:33.733Z,95614.5
2019-05-06T05:15:36.160Z,95614.6
2019-05-06T05:16:38.746Z,95618.7
2019-05-06T05:17:43.061Z,95614.7
2019-05-06T05:18:45.472Z,95617.5
2019-05-06T05:19:48.818Z,95616.9
2019-05-06T05:20:53.305Z,95615.9
2019-05-06T05:21:54.894Z,95618.3
2019-05-06T05:22:57.945Z,95616.4
2019-05-06T05:24:02.350Z,95618.7
2019-05-06T05:25:04.779Z,95620.5
2019-05-06T05:26:07.216Z,95619.9
2019-05-06T05:27:09.364Z,95621.8
2019-05-06T05:28:15.978Z,95619.5
2019-05-06T05:29:17.860Z,95625.3
2019-05-06T05:30:21.893Z,95620.2
2019-05-06T05:31:24.576Z,95621.8
2019-05-06T05:32:28.213Z,95623.4
2019-05-06T05:36:47.228Z,95622.6
2019-05-06T05:37:49.654Z,95627.6
2019-05-06T05:38:53.955Z,95628
2019-05-06T05:39:56.084Z,95629
2019-05-06T05:40:57.960Z,95629.2
2019-05-06T05:42:00.384Z,95630.4
2019-05-06T05:43:04.913Z,95633.9
2019-05-06T05:44:06.775Z,95632
2019-05-06T05:45:09.213Z,95632.9
2019-05-06T05:47:16.609Z,95629.8
2019-05-06T05:48:19.178Z,95636.5
2019-05-06T05:50:26.603Z,95633.9
2019-05-06T05:51:29.018Z,95636.6
2019-05-06T05:53:36.164Z,95637.5
2019-05-06T05:54:38.578Z,95634.7
2019-05-06T05:55:42.624Z,95632.1
2019-05-06T05:56:45.228Z,95636.4
2019-05-06T05:57:47.380Z,95637.9
2019-05-06T05:58:49.990Z,95637
2019-05-06T05:59:54.552Z,95636.3
2019-05-06T06:00:56.982Z,95637.6
2019-05-06T06:01:59.410Z,95639.2
2019-05-06T06:04:09.606Z,95641.3
2019-05-06T06:05:13.841Z,95639.2
2019-05-06T06:06:15.976Z,95633.9
2019-05-06T06:07:18.392Z,95639.6
2019-05-06T06:09:26.400Z,95637.3
2019-05-06T06:10:28.338Z,95638.8
2019-05-06T06:12:36.970Z,95640.3
2019-05-06T06:13:39.442Z,95644.1
2019-05-06T06:15:47.276Z,95643.5
2019-05-06T06:16:49.424Z,95641.5
2019-05-06T06:17:53.820Z,95636
2019-05-06T06:18:55.956Z,95640.5
2019-05-06T06:19:58.366Z,95640.4
2019-05-06T06:22:06.204Z,95640.4
2019-05-06T06:23:08.634Z,95645.8
2019-05-06T06:24:12.901Z,95646.9
2019-05-06T06:25:16.611Z,95649.3
2019-05-06T06:26:19.629Z,95648.7
2019-05-06T06:27:24.332Z,95646.9
2019-05-06T06:28:26.206Z,95642.5
2019-05-06T06:29:28.644Z,95647.7
2019-05-06T06:31:37.005Z,95646
2019-05-06T06:32:41.834Z,95645.2
2019-05-06T06:33:46.704Z,95644.6
2019-05-06T06:34:48.924Z,95645.4
2019-05-06T06:35:53.326Z,95647.7
2019-05-06T06:36:55.734Z,95649.4
2019-05-06T06:37:58.764Z,95646
2019-05-06T06:40:06.157Z,95644.1
2019-05-06T06:41:08.315Z,95646.1
2019-05-06T06:42:12.435Z,95647.7
2019-05-06T06:43:16.666Z,95646.1
2019-05-06T06:44:18.832Z,95646.3
2019-05-06T06:46:28.639Z,95650.6
2019-05-06T06:47:33.182Z,95647.5
2019-05-06T06:48:36.214Z,95649.7
2019-05-06T06:49:38.832Z,95648.3
2019-05-06T06:50:43.076Z,95644.7
2019-05-06T06:51:45.212Z,95650.4
2019-05-06T06:52:47.920Z,95645
2019-05-06T06:53:50.103Z,95649.1
2019-05-06T06:54:57.000Z,95644.6
2019-05-06T06:55:59.448Z,95649
2019-05-06T06:58:08.688Z,95646
2019-05-06T06:59:13.418Z,95644.8
2019-05-06T07:00:16.195Z,95650.8
2019-05-06T07:01:18.613Z,95645.6
2019-05-06T07:03:26.890Z,95649.1
2019-05-06T07:04:29.494Z,95650.6
2019-05-06T07:05:37.308Z,95653.4
2019-05-06T07:06:39.499Z,95651.9
2019-05-06T07:08:46.813Z,95648.8
2019-05-06T07:09:49.222Z,95647.5
2019-05-06T07:10:54.389Z,95647.3
2019-05-06T07:11:56.813Z,95645
2019-05-06T07:12:58.942Z,95647.1
2019-05-06T07:15:06.350Z,95655.5
2019-05-06T07:16:12.219Z,95648.6
2019-05-06T07:17:15.918Z,95649.4
2019-05-06T07:18:17.812Z,95648.7
2019-05-06T07:19:19.963Z,95643.6
2019-05-06T07:20:24.508Z,95648.9
2019-05-06T07:21:26.834Z,95652.3
2019-05-06T07:22:29.472Z,95653
2019-05-06T07:24:36.583Z,95653.3
2019-05-06T07:25:39.014Z,95656
2019-05-06T07:26:43.405Z,95653.3
2019-05-06T07:27:45.824Z,95656.6
2019-05-06T07:28:48.243Z,95653.9
2019-05-06T07:30:56.165Z,95660.3
2019-05-06T07:31:58.548Z,95659.1
2019-05-06T07:34:06.060Z,95656.1
2019-05-06T07:35:07.948Z,95653.5
2019-05-06T07:36:09.838Z,95655.1
2019-05-06T07:37:13.775Z,95649.3
2019-05-06T07:38:16.806Z,95650.6
2019-05-06T07:39:19.287Z,95659.5
2019-05-06T07:40:24.064Z,95662
2019-05-06T07:41:26.496Z,95660
2019-05-06T07:42:29.268Z,95659.4
2019-05-06T07:43:36.238Z,95659.2
2019-05-06T07:44:38.679Z,95660.8
2019-05-06T07:45:43.334Z,95661.5
2019-05-06T07:46:45.754Z,95655.4
2019-05-06T07:47:48.184Z,95656.1
2019-05-06T07:48:52.842Z,95654.8
2019-05-06T07:49:55.264Z,95650.9
2019-05-06T07:50:57.394Z,95650.9
2019-05-06T07:52:00.014Z,95656.7
2019-05-06T07:53:06.636Z,95652.9
2019-05-06T07:54:12.124Z,95656
2019-05-06T07:55:16.292Z,95654.1
2019-05-06T07:56:18.746Z,95654.4
2019-05-06T07:57:23.388Z,95654.7
2019-05-06T07:58:25.244Z,95655.5
2019-05-06T07:59:27.122Z,95647
2019-05-06T08:00:29.557Z,95648.7
2019-05-06T08:01:34.204Z,95648
2019-05-06T08:02:36.624Z,95651.2
2019-05-06T08:03:39.040Z,95651.5
2019-05-06T08:04:43.549Z,95654.3
2019-05-06T08:07:56.694Z,95655
2019-05-06T08:08:59.113Z,95655.9
2019-05-06T08:10:03.440Z,95654.2
2019-05-06T08:11:05.591Z,95657.6
2019-05-06T08:12:08.024Z,95653.5
2019-05-06T08:13:12.815Z,95663
2019-05-06T08:14:16.864Z,95658.7
2019-05-06T08:15:19.324Z,95657.8
2019-05-06T08:16:23.700Z,95658.4
2019-05-06T08:17:25.576Z,95657.1
2019-05-06T08:18:27.708Z,95656.8
2019-05-06T08:19:29.876Z,95654.2
2019-05-06T08:20:34.214Z,95653.2
2019-05-06T08:21:37.194Z,95650.9
2019-05-06T08:22:42.152Z,95647.3
2019-05-06T08:23:44.595Z,95648.9
2019-05-06T08:24:47.020Z,95648.6
2019-05-06T08:25:49.424Z,95648.8
2019-05-06T08:26:53.678Z,95648.4
2019-05-06T08:27:55.828Z,95648.1
2019-05-06T08:28:57.973Z,95641.6
2019-05-06T08:31:06.444Z,95652.2
2019-05-06T08:32:12.236Z,95649.7
2019-05-06T08:33:14.752Z,95651.9
2019-05-06T08:34:17.180Z,95650.4
2019-05-06T08:35:19.799Z,95655.8
2019-05-06T08:36:24.051Z,95654.2
2019-05-06T08:37:26.187Z,95650.9
2019-05-06T08:38:28.545Z,95652.1
2019-05-06T08:39:33.601Z,95652
2019-05-06T08:40:35.506Z,95648.4
2019-05-06T08:41:37.655Z,95652.5
2019-05-06T08:42:39.529Z,95649.6
2019-05-06T08:43:47.038Z,95648.5
2019-05-06T08:44:49.187Z,95648.2
2019-05-06T08:47:25.912Z,95641.5
2019-05-06T08:48:28.324Z,95639.8
2019-05-06T08:49:32.962Z,95642.9
2019-05-06T08:50:35.394Z,95645.4
2019-05-06T08:51:37.795Z,95642.7
2019-05-06T08:52:42.446Z,95646.2
2019-05-06T08:53:44.886Z,95648.5
2019-05-06T08:54:47.502Z,95646.4
2019-05-06T08:55:49.394Z,95650.3
2019-05-06T08:56:53.865Z,95654.3
2019-05-06T08:57:56.277Z,95653.3
2019-05-06T08:58:58.707Z,95650.6
2019-05-06T09:01:08.362Z,95651.7
2019-05-06T09:02:10.538Z,95650.3
2019-05-06T09:03:17.649Z,95647.6
2019-05-06T09:04:20.066Z,95652.5
2019-05-06T09:05:24.474Z,95652.9
2019-05-06T09:07:33.520Z,95648.4
2019-05-06T09:08:36.154Z,95650.9
2019-05-06T09:09:38.027Z,95655.1
2019-05-06T09:10:40.448Z,95653.8
2019-05-06T09:11:44.899Z,95653.3
2019-05-06T09:12:47.337Z,95652
2019-05-06T09:13:49.469Z,95653.6
2019-05-06T09:14:55.812Z,95646
2019-05-06T09:15:57.957Z,95645
2019-05-06T09:17:02.786Z,95643.7
2019-05-06T09:18:05.425Z,95647.1
2019-05-06T09:19:07.961Z,95651.1
2019-05-06T09:20:12.892Z,95647.3
2019-05-06T09:21:15.614Z,95650.8
2019-05-06T09:22:17.801Z,95647.6
2019-05-06T09:23:22.489Z,95646.3
2019-05-06T09:24:26.653Z,95649.2
2019-05-06T09:25:28.813Z,95649.3
2019-05-06T09:27:36.417Z,95650.5
2019-05-06T09:28:39.007Z,95648.1
2019-05-06T09:29:44.010Z,95645.6
2019-05-06T09:30:46.435Z,95648.5
2019-05-06T09:31:48.579Z,95652
2019-05-06T09:32:53.075Z,95645.8
2019-05-06T09:33:55.219Z,95646.8
2019-05-06T09:34:57.377Z,95641.3
2019-05-06T09:35:59.796Z,95646.2
2019-05-06T09:38:07.203Z,95645
2019-05-06T09:39:09.635Z,95644.5
2019-05-06T09:40:14.149Z,95646.3
2019-05-06T09:41:16.575Z,95651.7
2019-05-06T09:42:18.997Z,95650.7
2019-05-06T09:43:23.686Z,95651.8
2019-05-06T09:44:26.297Z,95650.3
2019-05-06T09:45:28.723Z,95652.4
2019-05-06T09:47:36.127Z,95647.6
2019-05-06T09:48:38.274Z,95646.2
2019-05-06T09:50:47.854Z,95651.7
2019-05-06T09:51:50.014Z,95646.6
2019-05-06T09:52:56.645Z,95648.2
2019-05-06T09:55:04.580Z,95645.2
2019-05-06T09:56:06.461Z,95647.3
2019-05-06T09:57:08.884Z,95652.4
2019-05-06T09:59:16.291Z,95643.3
2019-05-06T10:00:18.727Z,95643.8
2019-05-06T10:02:26.123Z,95646.7
2019-05-06T10:03:28.584Z,95645.2
2019-05-06T10:04:33.423Z,95637.2
2019-05-06T10:05:36.053Z,95638.4
2019-05-06T10:06:38.238Z,95638.7
2019-05-06T10:07:40.438Z,95639.7
2019-05-06T10:08:43.029Z,95640.7
2019-05-06T10:09:45.444Z,95636.6
2019-05-06T10:11:53.784Z,95631.8
2019-05-06T10:12:55.962Z,95634.4
2019-05-06T10:13:58.115Z,95633.7
2019-05-06T10:16:06.489Z,95629.5
2019-05-06T10:17:08.918Z,95635.6
2019-05-06T10:19:16.051Z,95633.5
2019-05-06T10:20:18.491Z,95634.9
2019-05-06T10:21:23.403Z,95631
2019-05-06T10:22:26.110Z,95632.2
2019-05-06T10:23:28.768Z,95633.3
2019-05-06T10:25:36.413Z,95633.8
2019-05-06T10:26:38.861Z,95642.6
2019-05-06T10:28:46.273Z,95638.8
2019-05-06T10:29:48.687Z,95635.1
2019-05-06T10:30:51.109Z,95630.3
2019-05-06T10:31:53.953Z,95637.2
2019-05-06T10:32:56.382Z,95637.1
2019-05-06T10:33:59.525Z,95637.8
2019-05-06T10:35:03.913Z,95636.1
2019-05-06T10:36:06.330Z,95631.3
2019-05-06T10:38:13.587Z,95632.4
2019-05-06T10:39:15.743Z,95635.4
2019-05-06T10:40:17.904Z,95631.6
2019-05-06T10:42:26.023Z,95633.6
2019-05-06T10:43:28.452Z,95637.3
2019-05-06T10:45:36.971Z,95635.7
2019-05-06T10:46:39.393Z,95634.5
2019-05-06T10:47:43.813Z,95635
2019-05-06T10:48:45.950Z,95633.9
2019-05-06T10:49:48.109Z,95639.9
2019-05-06T10:50:52.524Z,95637
2019-05-06T10:51:54.724Z,95640.9
2019-05-06T10:52:57.763Z,95647
2019-05-06T10:54:00.187Z,95645.8
2019-05-06T10:55:07.070Z,95639.6
2019-05-06T10:56:09.217Z,95643.1
2019-05-06T10:57:13.923Z,95640.8
2019-05-06T10:58:16.063Z,95644.5
2019-05-06T10:59:18.402Z,95644.7
2019-05-06T11:00:22.605Z,95645.5
2019-05-06T11:01:26.715Z,95647.1
2019-05-06T11:02:28.868Z,95648.8
2019-05-06T11:03:33.515Z,95650.1
2019-05-06T11:04:35.435Z,95651.7
2019-05-06T11:05:37.589Z,95652.8
2019-05-06T11:06:42.509Z,95651.2
2019-05-06T11:07:46.981Z,95648.9
2019-05-06T11:08:49.565Z,95650.1
2019-05-06T11:09:56.482Z,95653.6
2019-05-06T11:12:05.663Z,95649.4
2019-05-06T11:13:08.099Z,95653
2019-05-06T11:15:16.631Z,95652.1
2019-05-06T11:16:19.223Z,95649
2019-05-06T11:18:26.392Z,95651.7
2019-05-06T11:19:28.831Z,95649.9
2019-05-06T11:21:37.437Z,95652.8
2019-05-06T11:22:39.924Z,95648.7
2019-05-06T11:23:43.073Z,95648.7
2019-05-06T11:24:45.505Z,95648.5
2019-05-06T11:25:47.936Z,95651.3
2019-05-06T11:27:55.747Z,95652.1
2019-05-06T11:28:58.777Z,95655.2
2019-05-06T11:32:14.231Z,95652.7
2019-05-06T11:33:16.643Z,95651.9
2019-05-06T11:34:19.091Z,95653.2
2019-05-06T11:35:25.971Z,95658.4
2019-05-06T11:36:28.635Z,95654.4
2019-05-06T11:38:36.045Z,95654.9
2019-05-06T11:39:38.485Z,95654
2019-05-06T11:43:56.334Z,95655.9
2019-05-06T11:44:58.508Z,95659.9
2019-05-06T11:46:00.930Z,95655.6
2019-05-06T11:47:04.951Z,95654.6
2019-05-06T11:48:07.112Z,95659.3
2019-05-06T11:49:09.548Z,95654.1
2019-05-06T11:50:17.130Z,95654.8
2019-05-06T11:51:19.754Z,95655.8
2019-05-06T11:52:24.089Z,95655.2
2019-05-06T11:53:26.304Z,95653.7
2019-05-06T11:54:29.993Z,95658.5
2019-05-06T11:58:47.563Z,95660.6
2019-05-06T12:00:56.653Z,95661.6
2019-05-06T12:01:59.068Z,95660.4
2019-05-06T12:03:03.765Z,95662
2019-05-06T12:04:06.173Z,95659.2
2019-05-06T12:05:08.609Z,95660.7
2019-05-06T12:07:17.644Z,95658.2
2019-05-06T12:08:22.242Z,95658.2
2019-05-06T12:09:24.581Z,95661.1
2019-05-06T12:10:26.441Z,95664.1
2019-05-06T12:11:29.703Z,95667.3
2019-05-06T12:12:31.861Z,95666.2
2019-05-06T12:14:42.708Z,95663.8
2019-05-06T12:15:46.601Z,95666.7
2019-05-06T12:16:48.839Z,95667.5
2019-05-06T12:17:53.300Z,95674.8
2019-05-06T12:20:04.240Z,95672.6
2019-05-06T12:23:17.283Z,95672.9
2019-05-06T12:24:19.447Z,95666.3
2019-05-06T12:26:26.844Z,95668.3
2019-05-06T12:27:28.740Z,95673
2019-05-06T12:31:46.625Z,95669.1
2019-05-06T12:32:49.034Z,95669.7
2019-05-06T12:34:56.923Z,95674.3
2019-05-06T12:35:59.333Z,95671.2
2019-05-06T12:37:06.427Z,95674.3
2019-05-06T12:40:18.803Z,95679.4
2019-05-06T12:42:26.693Z,95680.8
2019-05-06T12:43:29.285Z,95680
2019-05-06T12:44:33.796Z,95683.1
2019-05-06T12:45:35.967Z,95688.2
2019-05-06T12:46:38.678Z,95685.1
2019-05-06T12:48:46.292Z,95685.9
2019-05-06T12:49:48.443Z,95681.6
2019-05-06T12:51:56.333Z,95683.9
2019-05-06T12:52:59.639Z,95683.4
2019-05-06T12:56:13.653Z,95679.6
2019-05-06T12:57:16.070Z,95681.7
2019-05-06T12:59:24.488Z,95683.5
2019-05-06T13:00:26.666Z,95683.7
2019-05-06T13:01:29.105Z,95681.1
2019-05-06T13:03:36.725Z,95680.9
2019-05-06T13:05:44.973Z,95682
2019-05-06T13:06:47.933Z,95684.3
2019-05-06T13:07:52.541Z,95685.6
2019-05-06T13:11:06.743Z,95683.4
2019-05-06T13:12:09.171Z,95686.6
2019-05-06T13:14:16.584Z,95690.9
2019-05-06T13:15:19.012Z,95690
2019-05-06T13:17:26.131Z,95685.3
2019-05-06T13:18:29.173Z,95685.2
2019-05-06T13:19:33.767Z,95683.4
2019-05-06T13:20:36.183Z,95679.1
2019-05-06T13:21:39.146Z,95678.8
2019-05-06T13:22:41.294Z,95678.5
2019-05-06T13:23:43.729Z,95682.1
2019-05-06T13:24:46.349Z,95678
2019-05-06T13:25:48.799Z,95678.5
2019-05-06T13:26:53.683Z,95683.4
2019-05-06T13:27:56.125Z,95683.1
2019-05-06T13:28:58.005Z,95681.3
2019-05-06T13:32:13.242Z,95685.1
2019-05-06T13:33:15.920Z,95683.8
2019-05-06T13:34:19.621Z,95683.4
2019-05-06T13:35:26.793Z,95682.4
2019-05-06T13:36:29.412Z,95685.9
2019-05-06T13:38:37.428Z,95679.5
2019-05-06T13:39:40.057Z,95681.2
2019-05-06T13:42:56.666Z,95683
2019-05-06T13:43:59.103Z,95681
2019-05-06T13:46:08.706Z,95684.4
2019-05-06T13:48:16.125Z,95677.9
2019-05-06T13:49:18.559Z,95675.2
2019-05-06T13:51:26.917Z,95678.6
2019-05-06T13:52:28.803Z,95677.3
2019-05-06T13:55:06.524Z,95678.2
2019-05-06T13:56:08.985Z,95677
2019-05-06T13:58:16.369Z,95678.8
2019-05-06T13:59:18.803Z,95685.8
2019-05-06T14:01:26.119Z,95680.5
2019-05-06T14:02:28.027Z,95686.4
2019-05-06T14:03:33.301Z,95684.8
2019-05-06T14:04:35.705Z,95683.1
2019-05-06T14:05:38.138Z,95688.1
2019-05-06T14:06:43.131Z,95689.6
2019-05-06T14:07:47.438Z,95686.1
2019-05-06T14:08:49.869Z,95687.2
2019-05-06T14:09:57.013Z,95688.2
2019-05-06T14:11:03.854Z,95682.1
2019-05-06T14:12:06.709Z,95688.2
2019-05-06T14:13:08.826Z,95680.8
2019-05-06T14:15:16.137Z,95685.1
2019-05-06T14:16:18.574Z,95689.9
2019-05-06T14:17:23.276Z,95691.8
2019-05-06T14:18:26.293Z,95688.8
2019-05-06T14:19:28.159Z,95687.4
2019-05-06T14:20:30.015Z,95688.1
2019-05-06T14:21:34.098Z,95690.6
2019-05-06T14:22:36.523Z,95686.2
2019-05-06T14:23:38.970Z,95683.3
2019-05-06T14:25:47.196Z,95686.4
2019-05-06T14:26:49.358Z,95684.5
2019-05-06T14:27:53.971Z,95682.4
2019-05-06T14:28:56.131Z,95682.8
2019-05-06T14:29:58.559Z,95685.3
2019-05-06T14:32:06.835Z,95682.6
2019-05-06T14:33:09.012Z,95684
2019-05-06T14:35:16.444Z,95682.3
2019-05-06T14:36:18.872Z,95687.9
2019-05-06T14:38:26.055Z,95688.8
2019-05-06T14:40:34.634Z,95685.4
2019-05-06T14:41:37.159Z,95688.6
2019-05-06T14:42:39.580Z,95690.5
2019-05-06T14:43:47.082Z,95689.7
2019-05-06T14:44:50.319Z,95689.9
2019-05-06T14:45:54.491Z,95687.5
2019-05-06T14:46:56.912Z,95690
2019-05-06T14:47:59.345Z,95690.1
2019-05-06T14:50:06.483Z,95683.3
2019-05-06T14:51:08.401Z,95686
2019-05-06T14:52:12.756Z,95688.7
2019-05-06T14:53:16.913Z,95686.7
2019-05-06T14:54:21.692Z,95689.2
2019-05-06T14:55:24.498Z,95691.1
2019-05-06T14:56:27.973Z,95689.6
2019-05-06T14:58:36.181Z,95688
2019-05-06T14:59:38.613Z,95689.4
2019-05-06T15:01:47.265Z,95691.5
2019-05-06T15:02:49.693Z,95695.8
2019-05-06T15:03:54.478Z,95691.8
2019-05-06T15:04:56.641Z,95693.7
2019-05-06T15:05:59.305Z,95694.6
2019-05-06T15:07:03.701Z,95699.8
2019-05-06T15:08:05.961Z,95697.2
2019-05-06T15:09:08.126Z,95691.1
2019-05-06T15:11:15.240Z,95695.2
2019-05-06T15:12:18.002Z,95694
2019-05-06T15:13:22.657Z,95694.1
2019-05-06T15:14:26.754Z,95697
2019-05-06T15:15:28.902Z,95696.6
2019-05-06T15:16:33.518Z,95693.5
2019-05-06T15:17:38.108Z,95699.3
2019-05-06T15:19:45.985Z,95699.6
2019-05-06T15:20:48.426Z,95701.3
2019-05-06T15:21:53.062Z,95698.7
2019-05-06T15:22:56.755Z,95697.3
2019-05-06T15:23:59.184Z,95701.2
2019-05-06T15:26:06.065Z,95700.5
2019-05-06T15:27:08.250Z,95700.2
2019-05-06T15:28:10.091Z,95701
2019-05-06T15:29:16.839Z,95701
2019-05-06T15:30:18.477Z,95704.1
2019-05-06T15:32:26.858Z,95704
2019-05-06T15:33:29.490Z,95705.4
2019-05-06T15:35:37.510Z,95703.2
2019-05-06T15:36:40.145Z,95707.6
2019-05-06T15:37:43.985Z,95705.4
2019-05-06T15:38:46.036Z,95705.6